sensor_id;sensor_type;location;lat;lon;timestamp;P1;durP1;ratioP1;P2;durP2;ratioP2
32038;SDS011;18549;42.286;22.688;2024-02-04T00:01:26;220.87;;;102.47;;
32038;SDS011;18549;42.286;22.688;2024-02-04T00:03:54;223.37;;;106.53;;
32038;SDS011;18549;42.286;22.688;2024-02-04T00:06:24;199.83;;;103.47;;
32038;SDS011;18549;42.286;22.688;2024-02-04T00:08:52;187.87;;;101.30;;
32038;SDS011;18549;42.286;22.688;2024-02-04T00:11:21;198.80;;;107.50;;
32038;SDS011;18549;42.286;22.688;2024-02-04T00:13:54;191.93;;;105.50;;
32038;SDS011;18549;42.286;22.688;2024-02-04T00:16:22;219.23;;;117.33;;
32038;SDS011;18549;42.286;22.688;2024-02-04T00:18:51;216.97;;;119.37;;
32038;SDS011;18549;42.286;22.688;2024-02-04T00:21:18;209.47;;;114.33;;
32038;SDS011;18549;42.286;22.688;2024-02-04T00:23:48;230.27;;;121.03;;
32038;SDS011;18549;42.286;22.688;2024-02-04T00:26:15;228.57;;;121.30;;
32038;SDS011;18549;42.286;22.688;2024-02-04T00:28:44;247.17;;;127.63;;
32038;SDS011;18549;42.286;22.688;2024-02-04T00:31:17;244.63;;;130.17;;
32038;SDS011;18549;42.286;22.688;2024-02-04T00:33:45;268.33;;;132.63;;
32038;SDS011;18549;42.286;22.688;2024-02-04T00:36:15;215.03;;;122.97;;
32038;SDS011;18549;42.286;22.688;2024-02-04T00:38:42;218.93;;;120.70;;
32038;SDS011;18549;42.286;22.688;2024-02-04T00:41:09;221.27;;;120.47;;
32038;SDS011;18549;42.286;22.688;2024-02-04T00:43:36;221.40;;;122.10;;
32038;SDS011;18549;42.286;22.688;2024-02-04T00:46:03;250.20;;;131.93;;
32038;SDS011;18549;42.286;22.688;2024-02-04T00:48:31;253.63;;;133.17;;
32038;SDS011;18549;42.286;22.688;2024-02-04T00:50:58;280.00;;;139.20;;
32038;SDS011;18549;42.286;22.688;2024-02-04T00:53:25;271.80;;;138.73;;
32038;SDS011;18549;42.286;22.688;2024-02-04T00:55:53;276.90;;;145.77;;
32038;SDS011;18549;42.286;22.688;2024-02-04T00:58:19;292.47;;;153.07;;
32038;SDS011;18549;42.286;22.688;2024-02-04T01:00:46;289.27;;;153.10;;
32038;SDS011;18549;42.286;22.688;2024-02-04T01:03:14;307.20;;;156.87;;
32038;SDS011;18549;42.286;22.688;2024-02-04T01:05:42;334.67;;;174.13;;
32038;SDS011;18549;42.286;22.688;2024-02-04T01:08:11;334.03;;;174.87;;
32038;SDS011;18549;42.286;22.688;2024-02-04T01:10:38;351.97;;;182.80;;
32038;SDS011;18549;42.286;22.688;2024-02-04T01:13:05;378.00;;;195.30;;
32038;SDS011;18549;42.286;22.688;2024-02-04T01:15:32;371.07;;;192.47;;
32038;SDS011;18549;42.286;22.688;2024-02-04T01:17:59;390.13;;;199.53;;
32038;SDS011;18549;42.286;22.688;2024-02-04T01:20:26;385.40;;;185.40;;
32038;SDS011;18549;42.286;22.688;2024-02-04T01:22:54;370.37;;;179.93;;
32038;SDS011;18549;42.286;22.688;2024-02-04T01:25:20;350.73;;;171.43;;
32038;SDS011;18549;42.286;22.688;2024-02-04T01:27:47;338.43;;;166.87;;
32038;SDS011;18549;42.286;22.688;2024-02-04T01:30:20;360.07;;;184.43;;
32038;SDS011;18549;42.286;22.688;2024-02-04T01:32:46;346.03;;;174.97;;
32038;SDS011;18549;42.286;22.688;2024-02-04T01:35:13;341.60;;;175.27;;
32038;SDS011;18549;42.286;22.688;2024-02-04T01:37:41;321.13;;;166.50;;
32038;SDS011;18549;42.286;22.688;2024-02-04T01:40:10;308.00;;;158.97;;
32038;SDS011;18549;42.286;22.688;2024-02-04T01:42:37;309.33;;;158.10;;
32038;SDS011;18549;42.286;22.688;2024-02-04T01:45:04;315.37;;;153.57;;
32038;SDS011;18549;42.286;22.688;2024-02-04T01:47:32;313.03;;;157.77;;
32038;SDS011;18549;42.286;22.688;2024-02-04T01:49:59;294.57;;;151.70;;
32038;SDS011;18549;42.286;22.688;2024-02-04T01:52:27;301.03;;;154.70;;
32038;SDS011;18549;42.286;22.688;2024-02-04T01:54:54;274.23;;;142.20;;
32038;SDS011;18549;42.286;22.688;2024-02-04T01:57:23;289.83;;;142.70;;
32038;SDS011;18549;42.286;22.688;2024-02-04T01:59:50;266.57;;;134.37;;
32038;SDS011;18549;42.286;22.688;2024-02-04T02:02:18;253.37;;;136.57;;
32038;SDS011;18549;42.286;22.688;2024-02-04T02:04:45;254.30;;;140.77;;
32038;SDS011;18549;42.286;22.688;2024-02-04T02:07:12;248.57;;;136.03;;
32038;SDS011;18549;42.286;22.688;2024-02-04T02:09:41;260.27;;;130.93;;
32038;SDS011;18549;42.286;22.688;2024-02-04T02:12:09;213.43;;;114.07;;
32038;SDS011;18549;42.286;22.688;2024-02-04T02:14:42;226.30;;;113.93;;
32038;SDS011;18549;42.286;22.688;2024-02-04T02:17:13;210.00;;;112.00;;
32038;SDS011;18549;42.286;22.688;2024-02-04T02:19:44;198.30;;;106.57;;
32038;SDS011;18549;42.286;22.688;2024-02-04T02:22:16;195.80;;;106.53;;
32038;SDS011;18549;42.286;22.688;2024-02-04T02:24:51;195.10;;;107.83;;
32038;SDS011;18549;42.286;22.688;2024-02-04T02:27:19;192.53;;;105.73;;
32038;SDS011;18549;42.286;22.688;2024-02-04T02:29:46;204.23;;;107.37;;
32038;SDS011;18549;42.286;22.688;2024-02-04T02:32:12;193.90;;;108.73;;
32038;SDS011;18549;42.286;22.688;2024-02-04T02:34:40;198.83;;;112.03;;
32038;SDS011;18549;42.286;22.688;2024-02-04T02:37:09;193.40;;;110.67;;
32038;SDS011;18549;42.286;22.688;2024-02-04T02:39:42;192.90;;;108.97;;
32038;SDS011;18549;42.286;22.688;2024-02-04T02:42:16;191.60;;;106.30;;
32038;SDS011;18549;42.286;22.688;2024-02-04T02:44:43;186.10;;;99.90;;
32038;SDS011;18549;42.286;22.688;2024-02-04T02:47:12;175.80;;;102.90;;
32038;SDS011;18549;42.286;22.688;2024-02-04T02:49:40;166.80;;;95.57;;
32038;SDS011;18549;42.286;22.688;2024-02-04T02:52:07;174.07;;;97.57;;
32038;SDS011;18549;42.286;22.688;2024-02-04T02:54:34;159.27;;;87.23;;
32038;SDS011;18549;42.286;22.688;2024-02-04T02:57:00;154.73;;;88.33;;
32038;SDS011;18549;42.286;22.688;2024-02-04T02:59:28;168.67;;;95.50;;
32038;SDS011;18549;42.286;22.688;2024-02-04T03:01:55;176.80;;;101.33;;
32038;SDS011;18549;42.286;22.688;2024-02-04T03:04:22;185.00;;;102.40;;
32038;SDS011;18549;42.286;22.688;2024-02-04T03:06:49;175.30;;;99.67;;
32038;SDS011;18549;42.286;22.688;2024-02-04T03:09:15;192.70;;;100.37;;
32038;SDS011;18549;42.286;22.688;2024-02-04T03:11:42;188.73;;;104.13;;
32038;SDS011;18549;42.286;22.688;2024-02-04T03:14:09;184.40;;;101.63;;
32038;SDS011;18549;42.286;22.688;2024-02-04T03:16:37;174.47;;;96.20;;
32038;SDS011;18549;42.286;22.688;2024-02-04T03:19:04;182.07;;;99.13;;
32038;SDS011;18549;42.286;22.688;2024-02-04T03:21:31;171.70;;;97.73;;
32038;SDS011;18549;42.286;22.688;2024-02-04T03:23:58;169.03;;;95.63;;
32038;SDS011;18549;42.286;22.688;2024-02-04T03:26:24;179.70;;;96.53;;
32038;SDS011;18549;42.286;22.688;2024-02-04T03:28:51;183.80;;;100.07;;
32038;SDS011;18549;42.286;22.688;2024-02-04T03:31:20;187.73;;;100.10;;
32038;SDS011;18549;42.286;22.688;2024-02-04T03:33:49;175.80;;;99.77;;
32038;SDS011;18549;42.286;22.688;2024-02-04T03:36:18;183.43;;;101.37;;
32038;SDS011;18549;42.286;22.688;2024-02-04T03:38:46;201.27;;;107.93;;
32038;SDS011;18549;42.286;22.688;2024-02-04T03:41:12;205.83;;;111.37;;
32038;SDS011;18549;42.286;22.688;2024-02-04T03:43:39;214.27;;;109.33;;
32038;SDS011;18549;42.286;22.688;2024-02-04T03:46:06;201.07;;;111.00;;
32038;SDS011;18549;42.286;22.688;2024-02-04T03:48:32;204.23;;;114.77;;
32038;SDS011;18549;42.286;22.688;2024-02-04T03:51:02;216.73;;;115.33;;
32038;SDS011;18549;42.286;22.688;2024-02-04T03:53:29;202.33;;;105.03;;
32038;SDS011;18549;42.286;22.688;2024-02-04T03:55:55;175.00;;;96.70;;
32038;SDS011;18549;42.286;22.688;2024-02-04T03:58:22;170.20;;;96.60;;
32038;SDS011;18549;42.286;22.688;2024-02-04T04:00:54;155.63;;;93.40;;
32038;SDS011;18549;42.286;22.688;2024-02-04T04:03:21;154.73;;;86.40;;
32038;SDS011;18549;42.286;22.688;2024-02-04T04:05:48;139.93;;;74.47;;
32038;SDS011;18549;42.286;22.688;2024-02-04T04:08:16;117.40;;;69.00;;
32038;SDS011;18549;42.286;22.688;2024-02-04T04:10:43;124.10;;;71.80;;
32038;SDS011;18549;42.286;22.688;2024-02-04T04:13:10;124.83;;;68.77;;
32038;SDS011;18549;42.286;22.688;2024-02-04T04:15:37;110.40;;;64.17;;
32038;SDS011;18549;42.286;22.688;2024-02-04T04:18:04;114.77;;;69.03;;
32038;SDS011;18549;42.286;22.688;2024-02-04T04:20:31;120.20;;;69.07;;
32038;SDS011;18549;42.286;22.688;2024-02-04T04:22:58;129.00;;;70.97;;
32038;SDS011;18549;42.286;22.688;2024-02-04T04:25:26;122.77;;;70.10;;
32038;SDS011;18549;42.286;22.688;2024-02-04T04:27:52;133.73;;;71.33;;
32038;SDS011;18549;42.286;22.688;2024-02-04T04:30:21;131.47;;;72.53;;
32038;SDS011;18549;42.286;22.688;2024-02-04T04:32:48;132.33;;;74.07;;
32038;SDS011;18549;42.286;22.688;2024-02-04T04:35:14;132.10;;;76.10;;
32038;SDS011;18549;42.286;22.688;2024-02-04T04:37:41;142.57;;;77.43;;
32038;SDS011;18549;42.286;22.688;2024-02-04T04:40:09;141.60;;;78.63;;
32038;SDS011;18549;42.286;22.688;2024-02-04T04:42:37;146.63;;;78.97;;
32038;SDS011;18549;42.286;22.688;2024-02-04T04:45:05;146.67;;;80.00;;
32038;SDS011;18549;42.286;22.688;2024-02-04T04:47:32;145.97;;;82.87;;
32038;SDS011;18549;42.286;22.688;2024-02-04T04:49:59;147.30;;;79.93;;
32038;SDS011;18549;42.286;22.688;2024-02-04T04:52:26;146.80;;;80.67;;
32038;SDS011;18549;42.286;22.688;2024-02-04T04:54:53;138.17;;;81.00;;
32038;SDS011;18549;42.286;22.688;2024-02-04T04:57:19;148.97;;;81.07;;
32038;SDS011;18549;42.286;22.688;2024-02-04T04:59:47;164.83;;;86.13;;
32038;SDS011;18549;42.286;22.688;2024-02-04T05:02:14;170.03;;;91.83;;
32038;SDS011;18549;42.286;22.688;2024-02-04T05:04:42;178.33;;;97.47;;
32038;SDS011;18549;42.286;22.688;2024-02-04T05:07:09;178.47;;;98.53;;
32038;SDS011;18549;42.286;22.688;2024-02-04T05:09:35;199.40;;;108.03;;
32038;SDS011;18549;42.286;22.688;2024-02-04T05:12:02;185.73;;;104.00;;
32038;SDS011;18549;42.286;22.688;2024-02-04T05:14:29;178.93;;;104.97;;
32038;SDS011;18549;42.286;22.688;2024-02-04T05:16:57;190.10;;;105.27;;
32038;SDS011;18549;42.286;22.688;2024-02-04T05:19:24;197.13;;;109.17;;
32038;SDS011;18549;42.286;22.688;2024-02-04T05:21:51;182.87;;;103.60;;
32038;SDS011;18549;42.286;22.688;2024-02-04T05:24:17;184.73;;;103.57;;
32038;SDS011;18549;42.286;22.688;2024-02-04T05:26:44;211.63;;;105.40;;
32038;SDS011;18549;42.286;22.688;2024-02-04T05:29:11;206.13;;;111.93;;
32038;SDS011;18549;42.286;22.688;2024-02-04T05:31:40;200.77;;;108.57;;
32038;SDS011;18549;42.286;22.688;2024-02-04T05:34:09;214.70;;;109.53;;
32038;SDS011;18549;42.286;22.688;2024-02-04T05:36:35;228.37;;;118.37;;
32038;SDS011;18549;42.286;22.688;2024-02-04T05:39:08;244.60;;;122.77;;
32038;SDS011;18549;42.286;22.688;2024-02-04T05:41:36;219.47;;;121.03;;
32038;SDS011;18549;42.286;22.688;2024-02-04T05:44:03;252.60;;;137.53;;
32038;SDS011;18549;42.286;22.688;2024-02-04T05:46:30;222.97;;;122.07;;
32038;SDS011;18549;42.286;22.688;2024-02-04T05:48:56;204.83;;;113.97;;
32038;SDS011;18549;42.286;22.688;2024-02-04T05:51:24;207.90;;;116.23;;
32038;SDS011;18549;42.286;22.688;2024-02-04T05:53:51;212.73;;;121.20;;
32038;SDS011;18549;42.286;22.688;2024-02-04T05:56:18;199.73;;;117.07;;
32038;SDS011;18549;42.286;22.688;2024-02-04T05:58:45;215.40;;;125.80;;
32038;SDS011;18549;42.286;22.688;2024-02-04T06:01:12;231.97;;;124.43;;
32038;SDS011;18549;42.286;22.688;2024-02-04T06:03:39;213.90;;;124.87;;
32038;SDS011;18549;42.286;22.688;2024-02-04T06:06:08;209.50;;;118.27;;
32038;SDS011;18549;42.286;22.688;2024-02-04T06:08:36;223.53;;;125.87;;
32038;SDS011;18549;42.286;22.688;2024-02-04T06:11:02;218.70;;;128.00;;
32038;SDS011;18549;42.286;22.688;2024-02-04T06:13:29;236.30;;;136.33;;
32038;SDS011;18549;42.286;22.688;2024-02-04T06:15:56;298.43;;;148.50;;
32038;SDS011;18549;42.286;22.688;2024-02-04T06:18:23;250.00;;;138.77;;
32038;SDS011;18549;42.286;22.688;2024-02-04T06:20:49;252.53;;;135.27;;
32038;SDS011;18549;42.286;22.688;2024-02-04T06:23:16;235.80;;;129.23;;
32038;SDS011;18549;42.286;22.688;2024-02-04T06:25:46;242.43;;;130.97;;
32038;SDS011;18549;42.286;22.688;2024-02-04T06:28:13;245.83;;;133.70;;
32038;SDS011;18549;42.286;22.688;2024-02-04T06:30:39;246.07;;;136.23;;
32038;SDS011;18549;42.286;22.688;2024-02-04T06:33:06;277.30;;;145.00;;
32038;SDS011;18549;42.286;22.688;2024-02-04T06:35:33;221.60;;;124.97;;
32038;SDS011;18549;42.286;22.688;2024-02-04T06:38:00;210.50;;;114.47;;
32038;SDS011;18549;42.286;22.688;2024-02-04T06:40:26;202.07;;;116.93;;
32038;SDS011;18549;42.286;22.688;2024-02-04T06:42:54;205.33;;;114.53;;
32038;SDS011;18549;42.286;22.688;2024-02-04T06:45:21;180.47;;;107.60;;
32038;SDS011;18549;42.286;22.688;2024-02-04T06:47:48;181.43;;;108.33;;
32038;SDS011;18549;42.286;22.688;2024-02-04T06:50:15;146.20;;;86.23;;
32038;SDS011;18549;42.286;22.688;2024-02-04T06:52:42;149.50;;;84.07;;
32038;SDS011;18549;42.286;22.688;2024-02-04T06:55:09;144.73;;;82.30;;
32038;SDS011;18549;42.286;22.688;2024-02-04T06:57:36;170.07;;;94.57;;
32038;SDS011;18549;42.286;22.688;2024-02-04T07:00:05;162.30;;;97.10;;
32038;SDS011;18549;42.286;22.688;2024-02-04T07:02:33;158.60;;;91.50;;
32038;SDS011;18549;42.286;22.688;2024-02-04T07:04:59;168.30;;;92.43;;
32038;SDS011;18549;42.286;22.688;2024-02-04T07:07:26;168.83;;;94.37;;
32038;SDS011;18549;42.286;22.688;2024-02-04T07:09:53;177.67;;;100.17;;
32038;SDS011;18549;42.286;22.688;2024-02-04T07:12:22;180.43;;;103.20;;
32038;SDS011;18549;42.286;22.688;2024-02-04T07:14:50;183.60;;;106.47;;
32038;SDS011;18549;42.286;22.688;2024-02-04T07:17:18;187.90;;;109.43;;
32038;SDS011;18549;42.286;22.688;2024-02-04T07:19:48;196.00;;;116.00;;
32038;SDS011;18549;42.286;22.688;2024-02-04T07:22:16;170.00;;;96.97;;
32038;SDS011;18549;42.286;22.688;2024-02-04T07:24:52;154.57;;;90.03;;
32038;SDS011;18549;42.286;22.688;2024-02-04T07:27:20;170.47;;;95.87;;
32038;SDS011;18549;42.286;22.688;2024-02-04T07:29:48;163.43;;;92.63;;
32038;SDS011;18549;42.286;22.688;2024-02-04T07:32:18;151.53;;;90.97;;
32038;SDS011;18549;42.286;22.688;2024-02-04T07:34:48;145.37;;;85.57;;
32038;SDS011;18549;42.286;22.688;2024-02-04T07:37:19;133.70;;;81.10;;
32038;SDS011;18549;42.286;22.688;2024-02-04T07:39:47;130.10;;;80.00;;
32038;SDS011;18549;42.286;22.688;2024-02-04T07:42:16;129.97;;;82.93;;
32038;SDS011;18549;42.286;22.688;2024-02-04T07:44:43;139.67;;;82.03;;
32038;SDS011;18549;42.286;22.688;2024-02-04T07:47:09;124.40;;;77.10;;
32038;SDS011;18549;42.286;22.688;2024-02-04T07:49:37;141.97;;;83.73;;
32038;SDS011;18549;42.286;22.688;2024-02-04T07:52:04;132.70;;;80.30;;
32038;SDS011;18549;42.286;22.688;2024-02-04T07:54:32;140.07;;;82.87;;
32038;SDS011;18549;42.286;22.688;2024-02-04T07:56:59;132.23;;;82.30;;
32038;SDS011;18549;42.286;22.688;2024-02-04T07:59:27;128.80;;;82.13;;
32038;SDS011;18549;42.286;22.688;2024-02-04T08:01:54;147.17;;;85.97;;
32038;SDS011;18549;42.286;22.688;2024-02-04T08:04:22;140.47;;;83.93;;
32038;SDS011;18549;42.286;22.688;2024-02-04T08:06:51;157.33;;;91.37;;
32038;SDS011;18549;42.286;22.688;2024-02-04T08:09:18;156.37;;;95.17;;
32038;SDS011;18549;42.286;22.688;2024-02-04T08:11:45;153.03;;;93.73;;
32038;SDS011;18549;42.286;22.688;2024-02-04T08:14:12;148.67;;;91.33;;
32038;SDS011;18549;42.286;22.688;2024-02-04T08:16:41;159.73;;;94.73;;
32038;SDS011;18549;42.286;22.688;2024-02-04T08:19:08;167.87;;;95.00;;
32038;SDS011;18549;42.286;22.688;2024-02-04T08:21:35;159.77;;;103.13;;
32038;SDS011;18549;42.286;22.688;2024-02-04T08:24:03;151.20;;;91.20;;
32038;SDS011;18549;42.286;22.688;2024-02-04T08:26:32;149.13;;;92.10;;
32038;SDS011;18549;42.286;22.688;2024-02-04T08:29:00;145.13;;;89.90;;
32038;SDS011;18549;42.286;22.688;2024-02-04T08:31:26;153.97;;;87.63;;
32038;SDS011;18549;42.286;22.688;2024-02-04T08:33:53;159.23;;;94.33;;
32038;SDS011;18549;42.286;22.688;2024-02-04T08:36:19;423.33;;;211.70;;
32038;SDS011;18549;42.286;22.688;2024-02-04T08:38:47;151.50;;;92.87;;
32038;SDS011;18549;42.286;22.688;2024-02-04T08:41:17;137.80;;;86.13;;
32038;SDS011;18549;42.286;22.688;2024-02-04T08:43:45;136.20;;;74.97;;
32038;SDS011;18549;42.286;22.688;2024-02-04T08:46:12;118.47;;;77.93;;
32038;SDS011;18549;42.286;22.688;2024-02-04T08:48:39;105.60;;;70.27;;
32038;SDS011;18549;42.286;22.688;2024-02-04T08:51:10;142.17;;;87.50;;
32038;SDS011;18549;42.286;22.688;2024-02-04T08:53:37;134.73;;;86.40;;
32038;SDS011;18549;42.286;22.688;2024-02-04T08:56:04;194.47;;;114.20;;
32038;SDS011;18549;42.286;22.688;2024-02-04T08:58:35;135.93;;;81.47;;
32038;SDS011;18549;42.286;22.688;2024-02-04T09:01:02;114.43;;;76.47;;
32038;SDS011;18549;42.286;22.688;2024-02-04T09:03:29;134.77;;;80.73;;
32038;SDS011;18549;42.286;22.688;2024-02-04T09:05:57;145.03;;;84.33;;
32038;SDS011;18549;42.286;22.688;2024-02-04T09:08:23;152.50;;;90.70;;
32038;SDS011;18549;42.286;22.688;2024-02-04T09:10:50;143.77;;;86.80;;
32038;SDS011;18549;42.286;22.688;2024-02-04T09:13:28;143.13;;;91.60;;
32038;SDS011;18549;42.286;22.688;2024-02-04T09:15:57;164.33;;;100.13;;
32038;SDS011;18549;42.286;22.688;2024-02-04T09:18:24;122.23;;;76.83;;
32038;SDS011;18549;42.286;22.688;2024-02-04T09:20:53;125.23;;;77.83;;
32038;SDS011;18549;42.286;22.688;2024-02-04T09:23:21;111.50;;;67.43;;
32038;SDS011;18549;42.286;22.688;2024-02-04T09:25:48;104.93;;;61.03;;
32038;SDS011;18549;42.286;22.688;2024-02-04T09:28:18;98.43;;;62.23;;
32038;SDS011;18549;42.286;22.688;2024-02-04T09:30:45;102.13;;;64.07;;
32038;SDS011;18549;42.286;22.688;2024-02-04T09:33:15;103.07;;;63.50;;
32038;SDS011;18549;42.286;22.688;2024-02-04T09:35:44;92.40;;;57.53;;
32038;SDS011;18549;42.286;22.688;2024-02-04T09:38:11;97.47;;;57.80;;
32038;SDS011;18549;42.286;22.688;2024-02-04T09:40:40;97.93;;;57.60;;
32038;SDS011;18549;42.286;22.688;2024-02-04T09:43:09;83.13;;;48.17;;
32038;SDS011;18549;42.286;22.688;2024-02-04T09:45:36;92.63;;;54.17;;
32038;SDS011;18549;42.286;22.688;2024-02-04T09:48:04;78.97;;;46.50;;
32038;SDS011;18549;42.286;22.688;2024-02-04T09:50:37;70.07;;;41.37;;
32038;SDS011;18549;42.286;22.688;2024-02-04T09:53:04;68.50;;;43.40;;
32038;SDS011;18549;42.286;22.688;2024-02-04T09:55:35;74.30;;;43.43;;
32038;SDS011;18549;42.286;22.688;2024-02-04T09:58:05;70.60;;;43.03;;
32038;SDS011;18549;42.286;22.688;2024-02-04T10:00:32;66.97;;;40.47;;
32038;SDS011;18549;42.286;22.688;2024-02-04T10:03:00;72.70;;;43.37;;
32038;SDS011;18549;42.286;22.688;2024-02-04T10:05:31;69.83;;;42.53;;
32038;SDS011;18549;42.286;22.688;2024-02-04T10:07:59;58.83;;;37.73;;
32038;SDS011;18549;42.286;22.688;2024-02-04T10:10:27;47.80;;;31.23;;
32038;SDS011;18549;42.286;22.688;2024-02-04T10:12:55;43.43;;;27.40;;
32038;SDS011;18549;42.286;22.688;2024-02-04T10:15:29;38.47;;;25.33;;
32038;SDS011;18549;42.286;22.688;2024-02-04T10:17:58;39.47;;;22.57;;
32038;SDS011;18549;42.286;22.688;2024-02-04T10:20:27;45.90;;;25.43;;
32038;SDS011;18549;42.286;22.688;2024-02-04T10:22:53;44.87;;;25.97;;
32038;SDS011;18549;42.286;22.688;2024-02-04T10:25:25;34.33;;;21.83;;
32038;SDS011;18549;42.286;22.688;2024-02-04T10:27:54;34.27;;;21.97;;
32038;SDS011;18549;42.286;22.688;2024-02-04T10:30:23;23.27;;;13.43;;
32038;SDS011;18549;42.286;22.688;2024-02-04T10:32:50;11.20;;;4.83;;
32038;SDS011;18549;42.286;22.688;2024-02-04T10:35:22;7.57;;;4.40;;
32038;SDS011;18549;42.286;22.688;2024-02-04T10:37:49;7.27;;;3.90;;
32038;SDS011;18549;42.286;22.688;2024-02-04T10:40:16;6.53;;;3.13;;
32038;SDS011;18549;42.286;22.688;2024-02-04T10:42:45;10.17;;;2.90;;
32038;SDS011;18549;42.286;22.688;2024-02-04T10:45:12;5.23;;;2.87;;
32038;SDS011;18549;42.286;22.688;2024-02-04T10:47:43;5.40;;;2.63;;
32038;SDS011;18549;42.286;22.688;2024-02-04T10:50:18;6.03;;;2.87;;
32038;SDS011;18549;42.286;22.688;2024-02-04T10:52:46;13.83;;;5.70;;
32038;SDS011;18549;42.286;22.688;2024-02-04T10:55:17;24.97;;;11.07;;
32038;SDS011;18549;42.286;22.688;2024-02-04T10:57:58;17.90;;;8.30;;
32038;SDS011;18549;42.286;22.688;2024-02-04T11:00:25;11.77;;;6.27;;
32038;SDS011;18549;42.286;22.688;2024-02-04T11:02:55;12.27;;;6.20;;
32038;SDS011;18549;42.286;22.688;2024-02-04T11:05:25;5.23;;;3.53;;
32038;SDS011;18549;42.286;22.688;2024-02-04T11:07:53;8.47;;;4.83;;
32038;SDS011;18549;42.286;22.688;2024-02-04T11:10:23;11.87;;;6.40;;
32038;SDS011;18549;42.286;22.688;2024-02-04T11:12:55;18.97;;;5.33;;
32038;SDS011;18549;42.286;22.688;2024-02-04T11:15:39;23.13;;;11.50;;
32038;SDS011;18549;42.286;22.688;2024-02-04T11:21:27;20.03;;;9.97;;
32038;SDS011;18549;42.286;22.688;2024-02-04T11:24:15;13.37;;;5.53;;
32038;SDS011;18549;42.286;22.688;2024-02-04T11:26:58;6.13;;;3.73;;
32038;SDS011;18549;42.286;22.688;2024-02-04T11:29:29;7.27;;;4.30;;
32038;SDS011;18549;42.286;22.688;2024-02-04T11:31:57;12.40;;;5.73;;
32038;SDS011;18549;42.286;22.688;2024-02-04T11:34:24;25.90;;;10.40;;
32038;SDS011;18549;42.286;22.688;2024-02-04T11:36:52;17.43;;;7.43;;
32038;SDS011;18549;42.286;22.688;2024-02-04T11:39:19;12.63;;;7.13;;
32038;SDS011;18549;42.286;22.688;2024-02-04T11:41:55;10.77;;;5.40;;
32038;SDS011;18549;42.286;22.688;2024-02-04T11:44:29;4.73;;;3.27;;
32038;SDS011;18549;42.286;22.688;2024-02-04T11:46:59;9.30;;;4.80;;
32038;SDS011;18549;42.286;22.688;2024-02-04T11:49:26;6.93;;;3.90;;
32038;SDS011;18549;42.286;22.688;2024-02-04T11:51:54;8.47;;;5.10;;
32038;SDS011;18549;42.286;22.688;2024-02-04T11:54:25;6.90;;;3.60;;
32038;SDS011;18549;42.286;22.688;2024-02-04T11:56:52;8.07;;;3.53;;
32038;SDS011;18549;42.286;22.688;2024-02-04T11:59:22;10.10;;;5.30;;
32038;SDS011;18549;42.286;22.688;2024-02-04T12:01:53;9.87;;;5.57;;
32038;SDS011;18549;42.286;22.688;2024-02-04T12:04:27;8.93;;;5.80;;
32038;SDS011;18549;42.286;22.688;2024-02-04T12:06:54;10.17;;;7.23;;
32038;SDS011;18549;42.286;22.688;2024-02-04T12:09:23;7.23;;;4.43;;
32038;SDS011;18549;42.286;22.688;2024-02-04T12:11:52;8.67;;;4.43;;
32038;SDS011;18549;42.286;22.688;2024-02-04T12:14:28;9.63;;;5.33;;
32038;SDS011;18549;42.286;22.688;2024-02-04T12:16:57;10.10;;;6.17;;
32038;SDS011;18549;42.286;22.688;2024-02-04T12:19:26;12.57;;;6.97;;
32038;SDS011;18549;42.286;22.688;2024-02-04T12:21:54;11.77;;;6.60;;
32038;SDS011;18549;42.286;22.688;2024-02-04T12:24:24;9.67;;;5.90;;
32038;SDS011;18549;42.286;22.688;2024-02-04T12:26:55;15.80;;;9.37;;
32038;SDS011;18549;42.286;22.688;2024-02-04T12:29:39;8.70;;;6.00;;
32038;SDS011;18549;42.286;22.688;2024-02-04T12:32:13;9.87;;;4.07;;
32038;SDS011;18549;42.286;22.688;2024-02-04T12:34:52;9.07;;;5.70;;
32038;SDS011;18549;42.286;22.688;2024-02-04T12:37:20;8.93;;;3.73;;
32038;SDS011;18549;42.286;22.688;2024-02-04T12:39:48;10.07;;;6.63;;
32038;SDS011;18549;42.286;22.688;2024-02-04T12:42:18;3.43;;;2.50;;
32038;SDS011;18549;42.286;22.688;2024-02-04T12:44:48;6.17;;;3.00;;
32038;SDS011;18549;42.286;22.688;2024-02-04T12:47:18;8.07;;;4.17;;
32038;SDS011;18549;42.286;22.688;2024-02-04T12:49:45;9.77;;;5.73;;
32038;SDS011;18549;42.286;22.688;2024-02-04T12:52:20;22.23;;;11.43;;
32038;SDS011;18549;42.286;22.688;2024-02-04T12:54:50;29.17;;;17.90;;
32038;SDS011;18549;42.286;22.688;2024-02-04T12:57:23;30.30;;;15.53;;
32038;SDS011;18549;42.286;22.688;2024-02-04T13:00:03;24.53;;;12.73;;
32038;SDS011;18549;42.286;22.688;2024-02-04T13:02:31;23.77;;;13.00;;
32038;SDS011;18549;42.286;22.688;2024-02-04T13:05:03;11.30;;;7.40;;
32038;SDS011;18549;42.286;22.688;2024-02-04T13:07:30;15.83;;;8.13;;
32038;SDS011;18549;42.286;22.688;2024-02-04T13:09:58;12.63;;;7.33;;
32038;SDS011;18549;42.286;22.688;2024-02-04T13:12:29;32.43;;;10.23;;
32038;SDS011;18549;42.286;22.688;2024-02-04T13:14:59;11.10;;;4.60;;
32038;SDS011;18549;42.286;22.688;2024-02-04T13:17:29;11.30;;;4.73;;
32038;SDS011;18549;42.286;22.688;2024-02-04T13:19:59;10.17;;;6.80;;
32038;SDS011;18549;42.286;22.688;2024-02-04T13:22:33;5.83;;;4.30;;
32038;SDS011;18549;42.286;22.688;2024-02-04T13:24:59;7.10;;;3.77;;
32038;SDS011;18549;42.286;22.688;2024-02-04T13:27:26;9.70;;;3.20;;
32038;SDS011;18549;42.286;22.688;2024-02-04T13:30:07;5.37;;;2.57;;
32038;SDS011;18549;42.286;22.688;2024-02-04T13:32:39;8.00;;;3.10;;
32038;SDS011;18549;42.286;22.688;2024-02-04T13:35:07;5.47;;;3.60;;
32038;SDS011;18549;42.286;22.688;2024-02-04T13:37:44;5.63;;;3.00;;
32038;SDS011;18549;42.286;22.688;2024-02-04T13:40:18;8.47;;;3.27;;
32038;SDS011;18549;42.286;22.688;2024-02-04T13:42:47;7.37;;;4.37;;
32038;SDS011;18549;42.286;22.688;2024-02-04T13:45:14;13.13;;;5.10;;
32038;SDS011;18549;42.286;22.688;2024-02-04T13:47:42;3.90;;;3.10;;
32038;SDS011;18549;42.286;22.688;2024-02-04T13:50:12;10.80;;;5.80;;
32038;SDS011;18549;42.286;22.688;2024-02-04T13:52:39;18.27;;;3.30;;
32038;SDS011;18549;42.286;22.688;2024-02-04T13:55:08;13.40;;;5.40;;
32038;SDS011;18549;42.286;22.688;2024-02-04T13:57:35;17.10;;;5.93;;
32038;SDS011;18549;42.286;22.688;2024-02-04T14:00:03;6.67;;;4.67;;
32038;SDS011;18549;42.286;22.688;2024-02-04T14:02:46;9.20;;;5.47;;
32038;SDS011;18549;42.286;22.688;2024-02-04T14:05:13;14.27;;;7.80;;
32038;SDS011;18549;42.286;22.688;2024-02-04T14:07:43;6.00;;;2.60;;
32038;SDS011;18549;42.286;22.688;2024-02-04T14:10:13;19.50;;;8.63;;
32038;SDS011;18549;42.286;22.688;2024-02-04T14:12:51;19.10;;;7.03;;